Terminal Aerodrome Forecast
Issued by NWS

Home | Current Version | Previous Version | Text Only | Print | Product List | Glossary On
Versions: 1 2 3 4 5 6 7 8 9 10 11 12 13 14 15 16
510
FTUS43 KTOP 172340
TAFMHK
TAF
KMHK 172340Z 1800/1824 24006KT P6SM BKN150
     FM180200 33004KT P6SM BKN200
     FM180700 36013G22KT P6SM SCT020 BKN040
     FM180900 34020G30KT P6SM VCSH OVC015
     FM181400 33019G29KT P6SM FEW030 SCT050=

USA.gov is the U.S. government's official web portal to all federal, state and local government web resources and services.